Time;durP1;ratioP1;P1;durP2;ratioP2;P2;SDS_P1;SDS_P2;PMS_P1;PMS_P2;Temp;Humidity;BMP_temperature;BMP_pressure;BME280_temperature;BME280_humidity;BME280_pressure;Samples;Min_cycle;Max_cycle;Signal;HPM_P1;HPM_P2
2022/01/05 00:01:58;;;;;;;;;;;4.40;98.90;;;;;;5082898;28;19940;-66
2022/01/05 00:04:24;;;;;;;;;;;4.40;98.70;;;;;;5082448;28;19913;-66
2022/01/05 00:06:49;;;;;;;;;;;4.40;99.00;;;;;;5083046;28;19986;-65
2022/01/05 00:09:15;;;;;;;;;;;4.30;98.90;;;;;;5082905;28;19984;-65
2022/01/05 00:11:41;;;;;;;;;;;4.30;98.90;;;;;;5082510;28;19919;-65
2022/01/05 00:14:07;;;;;;;;;;;4.30;99.00;;;;;;5082788;28;19915;-66
2022/01/05 00:16:32;;;;;;;;;;;4.30;99.00;;;;;;5082669;28;19962;-66
2022/01/05 00:18:58;;;;;;;;;;;4.20;99.10;;;;;;5082479;28;19909;-66
2022/01/05 00:21:24;;;;;;;;;;;4.20;99.10;;;;;;5081317;28;19967;-65
2022/01/05 00:23:49;;;;;;;;;;;4.30;99.10;;;;;;5082567;28;20131;-66
2022/01/05 00:26:15;;;;;;;;;;;4.20;99.10;;;;;;5082271;28;20030;-66
2022/01/05 00:28:41;;;;;;;;;;;4.20;99.50;;;;;;5082577;28;19909;-65
2022/01/05 00:31:06;;;;;;;;;;;4.20;99.30;;;;;;5082707;28;19919;-66
2022/01/05 00:33:32;;;;;;;;;;;4.20;99.40;;;;;;5082322;28;20259;-66
2022/01/05 00:35:58;;;;;;;;;;;4.20;99.40;;;;;;5082186;28;19916;-66
2022/01/05 00:38:23;;;;;;;;;;;4.30;99.40;;;;;;5082334;28;19916;-66
2022/01/05 00:40:49;;;;;;;;;;;4.30;99.40;;;;;;5082327;28;20234;-66
2022/01/05 00:43:15;;;;;;;;;;;4.30;99.40;;;;;;5083772;28;19975;-66
2022/01/05 00:45:40;;;;;;;;;;;4.30;99.50;;;;;;5085560;28;19986;-66
2022/01/05 00:48:06;;;;;;;;;;;4.30;99.50;;;;;;5084975;28;19962;-65
2022/01/05 00:50:32;;;;;;;;;;;4.30;99.50;;;;;;5085619;28;19912;-66
2022/01/05 00:53:00;;;;;;;;;;;4.30;99.80;;;;;;5085052;28;19983;-65
2022/01/05 00:55:27;;;;;;;;;;;4.30;99.40;;;;;;5085473;28;20146;-65
2022/01/05 00:57:53;;;;;;;;;;;4.20;99.60;;;;;;5084837;28;20115;-65
2022/01/05 01:00:19;;;;;;;;;;;4.20;99.60;;;;;;5084728;28;19915;-66
2022/01/05 01:02:44;;;;;;;;;;;4.20;99.80;;;;;;5085652;28;20253;-67
2022/01/05 01:05:11;;;;;;;;;;;4.20;99.80;;;;;;5084683;28;19980;-66
2022/01/05 01:07:37;;;;;;;;;;;4.20;99.90;;;;;;5085434;28;19908;-66
2022/01/05 01:10:03;;;;;;;;;;;4.20;99.90;;;;;;5084905;28;20226;-67
2022/01/05 01:12:29;;;;;;;;;;;4.20;99.80;;;;;;5085284;28;20200;-66
2022/01/05 01:14:54;;;;;;;;;;;4.20;99.90;;;;;;5085405;28;19908;-66
2022/01/05 01:17:22;;;;;;;;;;;4.20;99.80;;;;;;5085354;28;19908;-67
2022/01/05 01:19:47;;;;;;;;;;;4.30;99.90;;;;;;5084321;28;19908;-66
2022/01/05 01:22:13;;;;;;;;;;;4.30;99.90;;;;;;5085204;28;19951;-66
2022/01/05 01:24:39;;;;;;;;;;;4.30;99.90;;;;;;5084375;28;20246;-67
2022/01/05 01:27:05;;;;;;;;;;;4.30;99.90;;;;;;5085120;28;20107;-66
2022/01/05 01:29:31;;;;;;;;;;;4.20;99.90;;;;;;5084480;28;19914;-66
2022/01/05 01:31:57;;;;;;;;;;;4.30;99.90;;;;;;5084931;28;19920;-67
2022/01/05 01:34:23;;;;;;;;;;;4.30;99.90;;;;;;5084199;28;19939;-68
2022/01/05 01:36:49;;;;;;;;;;;4.30;99.80;;;;;;5085144;28;20015;-67
2022/01/05 01:39:14;;;;;;;;;;;4.30;99.90;;;;;;5085336;28;20138;-67
2022/01/05 01:41:40;;;;;;;;;;;4.30;99.90;;;;;;5083655;28;20219;-66
2022/01/05 01:44:06;;;;;;;;;;;4.30;99.90;;;;;;5084775;28;19915;-66
2022/01/05 01:46:32;;;;;;;;;;;4.40;99.90;;;;;;5083232;28;20111;-67
2022/01/05 01:48:57;;;;;;;;;;;4.30;99.90;;;;;;5080831;28;19912;-67
2022/01/05 01:51:23;;;;;;;;;;;4.30;99.90;;;;;;5083577;28;19912;-67
2022/01/05 01:53:49;;;;;;;;;;;4.40;99.90;;;;;;5102243;28;19915;-66
2022/01/05 01:56:14;;;;;;;;;;;4.40;99.90;;;;;;5104921;28;19908;-66
2022/01/05 01:58:40;;;;;;;;;;;4.40;99.90;;;;;;5104054;28;20159;-66
2022/01/05 02:01:06;;;;;;;;;;;4.40;99.90;;;;;;5103104;28;19938;-67
2022/01/05 02:03:32;;;;;;;;;;;4.50;99.90;;;;;;5084276;28;19908;-67
2022/01/05 02:05:57;;;;;;;;;;;4.50;99.90;;;;;;5084410;28;20257;-66
2022/01/05 02:08:23;;;;;;;;;;;4.40;99.90;;;;;;5083040;28;19909;-66
2022/01/05 02:10:49;;;;;;;;;;;4.40;99.90;;;;;;5084690;28;19912;-66
2022/01/05 02:13:16;;;;;;;;;;;4.40;99.90;;;;;;5100204;28;19915;-66
2022/01/05 02:15:41;;;;;;;;;;;4.40;99.90;;;;;;5084156;28;19931;-67
2022/01/05 02:18:21;;;;;;;;;;;4.40;99.90;;;;;;5083320;28;19916;-66
2022/01/05 02:20:47;;;;;;;;;;;4.40;99.90;;;;;;5084521;28;19909;-66
2022/01/05 02:23:13;;;;;;;;;;;4.50;99.90;;;;;;5082851;28;19909;-66
2022/01/05 02:25:39;;;;;;;;;;;4.50;99.90;;;;;;5083994;28;19950;-67
2022/01/05 02:28:04;;;;;;;;;;;4.40;99.90;;;;;;5065554;28;19946;-66
2022/01/05 02:30:30;;;;;;;;;;;4.50;99.90;;;;;;5083987;28;19977;-67
2022/01/05 02:32:56;;;;;;;;;;;4.50;99.90;;;;;;5083984;28;19908;-66
2022/01/05 02:35:22;;;;;;;;;;;4.50;99.90;;;;;;5083804;28;19975;-66
2022/01/05 02:37:50;;;;;;;;;;;4.50;99.90;;;;;;5083959;28;19915;-66
2022/01/05 02:40:17;;;;;;;;;;;4.50;99.90;;;;;;5082852;28;19916;-66
2022/01/05 02:42:43;;;;;;;;;;;4.50;99.90;;;;;;5083731;28;19919;-67
2022/01/05 02:45:09;;;;;;;;;;;4.50;99.90;;;;;;5083488;28;19908;-67
2022/01/05 02:47:35;;;;;;;;;;;4.50;99.90;;;;;;5083764;28;19915;-67
2022/01/05 02:50:02;;;;;;;;;;;4.50;99.90;;;;;;5083736;28;19909;-67
2022/01/05 02:52:27;;;;;;;;;;;4.60;99.90;;;;;;5083518;28;19923;-66
2022/01/05 02:54:53;;;;;;;;;;;4.60;99.90;;;;;;5082295;28;19909;-67
2022/01/05 02:57:19;;;;;;;;;;;4.60;99.90;;;;;;5083223;28;19916;-65
2022/01/05 02:59:44;;;;;;;;;;;4.60;99.90;;;;;;5083657;28;19944;-66
2022/01/05 03:02:10;;;;;;;;;;;4.60;99.90;;;;;;5083374;28;19946;-64
2022/01/05 03:04:36;;;;;;;;;;;4.70;99.90;;;;;;5082723;28;19908;-66
2022/01/05 03:07:01;;;;;;;;;;;4.70;99.90;;;;;;5082580;28;20247;-65
2022/01/05 03:09:27;;;;;;;;;;;4.70;99.90;;;;;;5083256;28;19912;-65
2022/01/05 03:11:53;;;;;;;;;;;4.70;99.90;;;;;;5083391;28;19913;-65
2022/01/05 03:14:19;;;;;;;;;;;4.70;99.90;;;;;;5082835;28;19908;-66
2022/01/05 03:16:45;;;;;;;;;;;4.70;99.90;;;;;;5083311;28;20146;-65
2022/01/05 03:19:11;;;;;;;;;;;4.70;99.90;;;;;;5083205;28;19916;-65
2022/01/05 03:21:36;;;;;;;;;;;4.70;99.90;;;;;;5083095;28;19963;-65
2022/01/05 03:24:02;;;;;;;;;;;4.70;99.90;;;;;;5081971;28;19912;-66
2022/01/05 03:26:28;;;;;;;;;;;4.80;99.90;;;;;;5083012;28;19908;-67
2022/01/05 03:28:53;;;;;;;;;;;4.80;99.90;;;;;;5083105;28;20203;-66
2022/01/05 03:31:19;;;;;;;;;;;4.80;99.90;;;;;;5083090;28;19984;-65
2022/01/05 03:33:45;;;;;;;;;;;4.80;99.90;;;;;;5082920;28;19912;-66
2022/01/05 03:36:10;;;;;;;;;;;4.90;99.90;;;;;;5082742;28;19908;-67
2022/01/05 03:38:36;;;;;;;;;;;4.90;99.90;;;;;;5082700;28;20115;-67
2022/01/05 03:41:02;;;;;;;;;;;4.80;99.90;;;;;;5082989;28;19908;-67
2022/01/05 03:43:27;;;;;;;;;;;4.90;99.90;;;;;;5081800;28;20202;-66
2022/01/05 03:45:53;;;;;;;;;;;4.90;99.90;;;;;;5082699;28;19914;-66
2022/01/05 03:48:19;;;;;;;;;;;4.80;99.90;;;;;;5081908;28;19908;-66
2022/01/05 03:50:45;;;;;;;;;;;4.80;99.90;;;;;;5082794;28;19912;-66
2022/01/05 03:53:11;;;;;;;;;;;4.90;99.90;;;;;;5082678;28;19951;-67
2022/01/05 03:55:38;;;;;;;;;;;5.00;99.90;;;;;;5081383;28;20199;-67
2022/01/05 03:58:03;;;;;;;;;;;4.90;99.90;;;;;;5082617;28;19908;-66
2022/01/05 04:00:30;;;;;;;;;;;4.90;99.90;;;;;;5081625;28;20107;-66
2022/01/05 04:02:56;;;;;;;;;;;4.90;99.90;;;;;;5082605;28;19908;-66
2022/01/05 04:05:22;;;;;;;;;;;5.00;99.90;;;;;;5081350;28;19972;-66
2022/01/05 04:07:49;;;;;;;;;;;5.00;99.90;;;;;;5082683;28;19923;-66
2022/01/05 04:10:16;;;;;;;;;;;5.00;99.90;;;;;;5082685;28;20288;-66
2022/01/05 04:12:41;;;;;;;;;;;5.00;99.90;;;;;;5082566;28;19912;-66
2022/01/05 04:15:07;;;;;;;;;;;5.00;99.90;;;;;;5082341;28;19915;-66
2022/01/05 04:17:33;;;;;;;;;;;5.00;99.90;;;;;;5083079;28;20364;-65
2022/01/05 04:19:59;;;;;;;;;;;5.10;99.90;;;;;;5086375;28;19975;-65
2022/01/05 04:22:24;;;;;;;;;;;5.10;99.90;;;;;;5086507;28;19915;-66
2022/01/05 04:24:50;;;;;;;;;;;5.10;99.90;;;;;;5086304;28;19975;-65
2022/01/05 04:27:16;;;;;;;;;;;5.10;99.90;;;;;;5086483;28;19909;-66
2022/01/05 04:29:42;;;;;;;;;;;5.10;99.90;;;;;;5086235;28;19908;-66
2022/01/05 04:32:08;;;;;;;;;;;5.20;99.90;;;;;;5085154;28;19935;-66
2022/01/05 04:34:34;;;;;;;;;;;5.20;99.90;;;;;;5086079;28;19908;-66
2022/01/05 04:36:59;;;;;;;;;;;5.20;99.90;;;;;;5086169;28;19935;-65
2022/01/05 04:39:25;;;;;;;;;;;5.30;99.80;;;;;;5086297;28;19915;-65
2022/01/05 04:41:51;;;;;;;;;;;5.20;99.80;;;;;;5086110;28;19946;-66
2022/01/05 04:44:16;;;;;;;;;;;5.20;99.90;;;;;;5085767;28;20114;-67
2022/01/05 04:46:42;;;;;;;;;;;5.30;99.90;;;;;;5085897;28;19976;-65
2022/01/05 04:49:08;;;;;;;;;;;5.30;99.90;;;;;;5085998;28;19971;-65
2022/01/05 04:51:33;;;;;;;;;;;5.30;99.90;;;;;;5085802;28;19919;-65
2022/01/05 04:53:59;;;;;;;;;;;5.30;99.90;;;;;;5104179;22;20273;-64
2022/01/05 04:56:25;;;;;;;;;;;5.40;99.90;;;;;;5078943;28;19932;-66
2022/01/05 04:58:50;;;;;;;;;;;5.40;99.90;;;;;;5085087;28;19962;-66
2022/01/05 05:01:16;;;;;;;;;;;5.30;99.90;;;;;;5085924;28;19908;-66
2022/01/05 05:03:42;;;;;;;;;;;5.40;99.90;;;;;;5085771;28;20115;-66
2022/01/05 05:06:07;;;;;;;;;;;5.40;99.90;;;;;;5083915;28;20211;-67
2022/01/05 05:08:33;;;;;;;;;;;5.40;99.80;;;;;;5077034;28;19917;-66
2022/01/05 05:10:58;;;;;;;;;;;5.40;99.60;;;;;;5082744;28;19919;-66
2022/01/05 05:13:24;;;;;;;;;;;5.40;99.70;;;;;;5085589;28;19916;-67
2022/01/05 05:15:50;;;;;;;;;;;5.40;99.70;;;;;;5084677;28;19975;-66
2022/01/05 05:18:15;;;;;;;;;;;5.40;99.80;;;;;;5076777;28;20165;-66
2022/01/05 05:20:41;;;;;;;;;;;5.40;99.80;;;;;;5085525;28;19916;-65
2022/01/05 05:23:07;;;;;;;;;;;5.40;99.70;;;;;;5084568;28;19908;-66
2022/01/05 05:25:32;;;;;;;;;;;5.40;99.70;;;;;;5085219;28;19909;-66
2022/01/05 05:27:58;;;;;;;;;;;5.50;99.70;;;;;;5084315;28;19916;-66
2022/01/05 05:30:24;;;;;;;;;;;5.40;99.70;;;;;;5084533;28;19984;-66
2022/01/05 05:32:50;;;;;;;;;;;5.50;99.70;;;;;;5084160;28;19979;-63
2022/01/05 05:35:16;;;;;;;;;;;5.50;99.60;;;;;;5064629;28;20200;-64
2022/01/05 05:37:42;;;;;;;;;;;5.50;99.50;;;;;;5072222;28;20122;-64
2022/01/05 05:40:08;;;;;;;;;;;5.60;99.50;;;;;;5084969;28;19935;-64
2022/01/05 05:42:34;;;;;;;;;;;5.60;99.20;;;;;;5085247;28;19923;-64
2022/01/05 05:44:59;;;;;;;;;;;5.60;99.00;;;;;;5084035;28;19908;-65
2022/01/05 05:47:25;;;;;;;;;;;5.60;98.80;;;;;;5085064;28;19908;-65
2022/01/05 05:49:51;;;;;;;;;;;5.60;98.60;;;;;;5083718;28;20082;-65
2022/01/05 05:52:16;;;;;;;;;;;5.60;99.00;;;;;;5080754;28;20111;-65
2022/01/05 05:54:42;;;;;;;;;;;5.60;98.60;;;;;;5079674;28;19981;-65
2022/01/05 05:57:08;;;;;;;;;;;5.70;98.40;;;;;;5084662;28;19921;-65
2022/01/05 05:59:33;;;;;;;;;;;5.70;98.50;;;;;;5074615;28;20199;-65
2022/01/05 06:01:59;;;;;;;;;;;5.70;98.50;;;;;;5084413;28;20199;-65
2022/01/05 06:04:25;;;;;;;;;;;5.60;98.70;;;;;;5083715;28;19916;-65
2022/01/05 06:06:51;;;;;;;;;;;5.70;98.60;;;;;;5084679;28;19968;-65
2022/01/05 06:09:16;;;;;;;;;;;5.60;98.80;;;;;;5083646;28;19913;-65
2022/01/05 06:11:42;;;;;;;;;;;5.60;98.60;;;;;;5084423;28;19916;-65
2022/01/05 06:14:08;;;;;;;;;;;5.60;98.90;;;;;;5084166;28;20022;-64
2022/01/05 06:16:33;;;;;;;;;;;5.60;99.10;;;;;;5083613;28;19908;-64
2022/01/05 06:18:59;;;;;;;;;;;5.50;99.40;;;;;;5084064;28;19908;-64
2022/01/05 06:21:24;;;;;;;;;;;5.50;99.00;;;;;;5082764;28;19908;-64
2022/01/05 06:23:50;;;;;;;;;;;5.40;99.30;;;;;;5084074;28;20138;-65
2022/01/05 06:26:16;;;;;;;;;;;5.30;98.70;;;;;;5083731;28;19909;-65
2022/01/05 06:28:42;;;;;;;;;;;5.30;98.40;;;;;;5083486;28;19944;-64
2022/01/05 06:31:07;;;;;;;;;;;5.20;98.80;;;;;;5083983;28;19915;-64
2022/01/05 06:33:33;;;;;;;;;;;5.10;98.70;;;;;;5083406;28;19908;-65
2022/01/05 06:35:59;;;;;;;;;;;5.00;99.20;;;;;;5083456;28;19908;-65
2022/01/05 06:38:25;;;;;;;;;;;5.00;99.00;;;;;;5084036;28;19909;-65
2022/01/05 06:40:51;;;;;;;;;;;5.00;98.90;;;;;;5083778;28;19980;-64
2022/01/05 06:43:16;;;;;;;;;;;5.00;99.20;;;;;;5083155;28;20108;-64
2022/01/05 06:45:42;;;;;;;;;;;5.00;99.20;;;;;;5083269;28;19971;-64
2022/01/05 06:48:08;;;;;;;;;;;4.90;98.80;;;;;;5083622;28;19920;-65
2022/01/05 06:50:33;;;;;;;;;;;4.90;97.80;;;;;;5083728;28;19972;-65
2022/01/05 06:52:59;;;;;;;;;;;4.70;95.80;;;;;;5082923;28;19912;-65
2022/01/05 06:55:25;;;;;;;;;;;4.60;95.70;;;;;;5083409;28;19908;-64
2022/01/05 06:57:51;;;;;;;;;;;4.40;96.10;;;;;;5083661;28;20208;-65
2022/01/05 07:00:17;;;;;;;;;;;4.30;95.70;;;;;;5084078;28;19909;-65
2022/01/05 07:02:42;;;;;;;;;;;4.20;96.00;;;;;;5075024;28;19924;-64
2022/01/05 07:05:08;;;;;;;;;;;4.10;96.20;;;;;;5063274;28;20127;-65
2022/01/05 07:07:35;;;;;;;;;;;4.00;96.60;;;;;;5064926;28;19915;-65
2022/01/05 07:10:00;;;;;;;;;;;4.00;96.80;;;;;;5083023;28;19988;-66
2022/01/05 07:12:26;;;;;;;;;;;3.90;96.70;;;;;;5083364;28;19912;-65
2022/01/05 07:14:52;;;;;;;;;;;3.90;97.00;;;;;;5083101;28;19908;-64
2022/01/05 07:17:18;;;;;;;;;;;4.00;97.30;;;;;;5083351;28;20092;-65
2022/01/05 07:19:44;;;;;;;;;;;3.90;97.10;;;;;;5083190;28;19971;-65
2022/01/05 07:22:10;;;;;;;;;;;3.80;97.20;;;;;;5083372;28;19979;-65
2022/01/05 07:24:36;;;;;;;;;;;3.70;96.40;;;;;;5082701;28;19915;-65
2022/01/05 07:27:01;;;;;;;;;;;3.60;96.90;;;;;;5083276;28;19979;-65
2022/01/05 07:29:27;;;;;;;;;;;3.70;97.30;;;;;;5082489;28;19913;-65
2022/01/05 07:31:53;;;;;;;;;;;3.60;97.10;;;;;;5083058;28;19935;-65
2022/01/05 07:34:18;;;;;;;;;;;3.60;97.50;;;;;;5082884;28;19908;-65
2022/01/05 07:36:44;;;;;;;;;;;3.60;97.30;;;;;;5083094;28;20164;-64
2022/01/05 07:39:10;;;;;;;;;;;3.60;97.50;;;;;;5082685;28;19936;-64
2022/01/05 07:41:36;;;;;;;;;;;3.60;97.10;;;;;;5083018;28;19913;-65
2022/01/05 07:44:02;;;;;;;;;;;3.60;97.60;;;;;;5082401;28;19987;-65
2022/01/05 07:46:28;;;;;;;;;;;3.50;97.40;;;;;;5082764;28;19954;-65
2022/01/05 07:48:54;;;;;;;;;;;3.50;97.10;;;;;;5082734;28;19956;-64
2022/01/05 07:51:19;;;;;;;;;;;3.40;97.10;;;;;;5082758;28;19984;-65
2022/01/05 07:53:45;;;;;;;;;;;3.40;96.00;;;;;;5082241;28;20142;-65
2022/01/05 07:56:11;;;;;;;;;;;3.40;96.10;;;;;;5082416;28;20126;-65
2022/01/05 07:58:36;;;;;;;;;;;3.30;96.60;;;;;;5082437;28;19913;-64
2022/01/05 08:01:03;;;;;;;;;;;3.30;97.00;;;;;;5082975;28;19908;-65
2022/01/05 08:03:30;;;;;;;;;;;3.30;97.10;;;;;;5082545;28;19975;-65
2022/01/05 08:05:56;;;;;;;;;;;3.30;97.50;;;;;;5081755;28;19908;-65
2022/01/05 08:08:22;;;;;;;;;;;3.30;97.70;;;;;;5082375;28;19935;-65
2022/01/05 08:10:47;;;;;;;;;;;3.30;97.60;;;;;;5082140;28;19915;-65
2022/01/05 08:13:13;;;;;;;;;;;3.20;97.80;;;;;;5082732;28;19908;-64
2022/01/05 08:15:39;;;;;;;;;;;3.20;97.30;;;;;;5082297;28;19944;-65
2022/01/05 08:18:04;;;;;;;;;;;3.20;97.80;;;;;;5082125;28;19916;-65
2022/01/05 08:20:30;;;;;;;;;;;3.20;97.70;;;;;;5082304;28;19950;-65
2022/01/05 08:22:56;;;;;;;;;;;3.20;97.20;;;;;;5081888;28;20146;-64
2022/01/05 08:25:21;;;;;;;;;;;3.20;97.40;;;;;;5082043;28;19918;-64
2022/01/05 08:27:47;;;;;;;;;;;3.10;96.90;;;;;;5082432;28;19946;-64
2022/01/05 08:30:17;;;;;;;;;;;3.10;96.90;;;;;;5082298;28;19930;-65
2022/01/05 08:32:44;;;;;;;;;;;3.10;97.00;;;;;;5082177;28;19915;-65
2022/01/05 08:35:10;;;;;;;;;;;3.10;96.70;;;;;;5080443;28;19939;-65
2022/01/05 08:37:36;;;;;;;;;;;3.20;96.70;;;;;;5082258;28;19916;-64
2022/01/05 08:40:03;;;;;;;;;;;3.20;97.10;;;;;;5082577;28;19931;-73
2022/01/05 08:42:29;;;;;;;;;;;3.20;97.10;;;;;;5061378;28;19939;-67
2022/01/05 08:44:55;;;;;;;;;;;3.30;97.20;;;;;;5081793;28;19908;-66
2022/01/05 08:47:20;;;;;;;;;;;3.30;96.00;;;;;;5081543;28;19931;-67
2022/01/05 08:49:46;;;;;;;;;;;3.40;95.60;;;;;;5081753;28;19920;-67
2022/01/05 08:52:12;;;;;;;;;;;3.40;95.40;;;;;;5081518;28;19947;-67
2022/01/05 08:54:37;;;;;;;;;;;3.50;95.20;;;;;;5081683;28;19908;-66
2022/01/05 08:57:04;;;;;;;;;;;3.60;95.20;;;;;;5082173;28;19908;-67
2022/01/05 08:59:30;;;;;;;;;;;3.60;95.20;;;;;;5080404;28;19967;-67
2022/01/05 09:01:55;;;;;;;;;;;3.70;95.30;;;;;;5081877;28;20257;-67
2022/01/05 09:04:22;;;;;;;;;;;3.70;95.40;;;;;;5082043;28;19909;-66
2022/01/05 09:06:47;;;;;;;;;;;3.70;94.80;;;;;;5084299;28;19908;-66
2022/01/05 09:09:13;;;;;;;;;;;3.70;94.60;;;;;;5085019;28;20110;-66
2022/01/05 09:11:39;;;;;;;;;;;3.70;94.80;;;;;;5075391;28;19908;-66
2022/01/05 09:14:04;;;;;;;;;;;3.70;94.90;;;;;;5076572;28;19908;-66
2022/01/05 09:16:30;;;;;;;;;;;3.70;94.40;;;;;;5085356;28;19983;-67
2022/01/05 09:18:56;;;;;;;;;;;3.70;94.10;;;;;;5085471;28;19944;-67
2022/01/05 09:21:21;;;;;;;;;;;3.60;93.60;;;;;;5085663;28;19914;-67
2022/01/05 09:23:47;;;;;;;;;;;3.60;93.60;;;;;;5084569;28;20196;-70
2022/01/05 09:26:13;;;;;;;;;;;3.60;94.10;;;;;;5084963;28;19923;-68
2022/01/05 09:28:43;;;;;;;;;;;3.60;94.10;;;;;;5085421;28;19920;-67
2022/01/05 09:31:10;;;;;;;;;;;3.50;94.60;;;;;;5084667;28;19957;-68
2022/01/05 09:33:36;;;;;;;;;;;3.60;94.80;;;;;;5083541;28;19908;-68
2022/01/05 09:36:10;;;;;;;;;;;3.50;94.70;;;;;;5072598;28;20150;-68
2022/01/05 09:43:56;;;;;;;;;;;3.50;94.60;;;;;;5054603;28;19916;-68
2022/01/05 09:46:32;;;;;;;;;;;3.50;94.70;;;;;;5080364;28;19936;-68
2022/01/05 09:49:22;;;;;;;;;;;3.60;94.30;;;;;;5064704;28;19935;-68
2022/01/05 09:51:49;;;;;;;;;;;3.70;92.70;;;;;;5064026;28;19924;-68
2022/01/05 09:54:15;;;;;;;;;;;3.80;93.00;;;;;;5079920;28;19963;-68
2022/01/05 09:56:40;;;;;;;;;;;3.70;93.30;;;;;;5064775;28;19917;-68
2022/01/05 09:59:06;;;;;;;;;;;3.80;92.20;;;;;;5082931;28;19957;-68
2022/01/05 10:01:33;;;;;;;;;;;4.00;90.60;;;;;;5084342;28;19908;-68
2022/01/05 10:03:59;;;;;;;;;;;4.10;91.40;;;;;;5084721;28;20200;-68
2022/01/05 10:06:25;;;;;;;;;;;3.90;88.80;;;;;;5083385;28;19920;-68
2022/01/05 10:08:51;;;;;;;;;;;3.90;89.40;;;;;;5082963;28;19943;-68
2022/01/05 10:11:17;;;;;;;;;;;3.80;90.40;;;;;;5064328;28;19909;-68
2022/01/05 10:13:43;;;;;;;;;;;3.60;88.10;;;;;;5077749;28;19920;-68
2022/01/05 10:16:10;;;;;;;;;;;3.60;87.30;;;;;;5083901;28;20149;-68
2022/01/05 10:18:39;;;;;;;;;;;3.60;89.40;;;;;;5084963;28;19975;-69
2022/01/05 10:21:06;;;;;;;;;;;4.00;89.50;;;;;;5082531;28;19908;-68
2022/01/05 10:23:37;;;;;;;;;;;4.30;87.50;;;;;;5066538;28;19916;-69
2022/01/05 10:26:18;;;;;;;;;;;4.50;83.80;;;;;;5081895;28;19915;-69
2022/01/05 10:28:45;;;;;;;;;;;4.50;76.40;;;;;;5084181;28;20215;-69
2022/01/05 10:31:15;;;;;;;;;;;4.80;81.00;;;;;;5083196;28;19997;-69
2022/01/05 10:33:41;;;;;;;;;;;4.80;75.50;;;;;;5084055;28;19946;-69
2022/01/05 10:36:07;;;;;;;;;;;4.40;74.40;;;;;;5082961;28;19983;-69
2022/01/05 10:38:32;;;;;;;;;;;4.30;78.60;;;;;;5082389;28;19915;-69
2022/01/05 10:40:58;;;;;;;;;;;4.30;77.80;;;;;;5082870;28;19908;-69
2022/01/05 10:43:24;;;;;;;;;;;4.20;79.40;;;;;;5074224;28;19971;-69
2022/01/05 10:45:52;;;;;;;;;;;4.00;78.00;;;;;;5062499;28;19908;-69
2022/01/05 10:48:19;;;;;;;;;;;4.30;77.50;;;;;;5063665;28;19987;-70
2022/01/05 10:50:46;;;;;;;;;;;4.40;71.90;;;;;;5065091;28;19908;-73
2022/01/05 10:53:16;;;;;;;;;;;4.30;75.70;;;;;;5101666;23;19912;-69
2022/01/05 10:55:44;;;;;;;;;;;4.70;72.80;;;;;;5074720;28;19948;-69
2022/01/05 10:58:11;;;;;;;;;;;5.50;71.40;;;;;;5082001;28;19909;-69
2022/01/05 11:00:50;;;;;;;;;;;6.50;69.40;;;;;;5082771;28;19977;-69
2022/01/05 11:03:35;;;;;;;;;;;6.70;65.90;;;;;;5083395;28;19955;-69
2022/01/05 11:06:08;;;;;;;;;;;6.40;65.10;;;;;;5081236;28;19966;-69
2022/01/05 11:09:03;;;;;;;;;;;6.30;63.30;;;;;;5083315;28;20111;-69
2022/01/05 11:11:37;;;;;;;;;;;6.10;64.10;;;;;;5082706;28;19909;-69
2022/01/05 11:14:07;;;;;;;;;;;5.60;66.20;;;;;;5072248;28;19932;-69
2022/01/05 11:16:33;;;;;;;;;;;5.50;68.60;;;;;;5079428;28;20135;-69
2022/01/05 11:19:18;;;;;;;;;;;5.10;67.60;;;;;;5062561;28;19916;-69
2022/01/05 11:22:00;;;;;;;;;;;5.00;66.50;;;;;;5082280;28;19940;-69
2022/01/05 11:24:27;;;;;;;;;;;4.60;68.70;;;;;;5082708;28;19909;-69
2022/01/05 11:26:52;;;;;;;;;;;4.40;66.60;;;;;;5081275;28;19908;-69
2022/01/05 11:29:18;;;;;;;;;;;4.90;68.20;;;;;;5083075;28;19916;-69
2022/01/05 11:31:45;;;;;;;;;;;5.60;65.00;;;;;;5083069;28;19908;-69
2022/01/05 11:34:11;;;;;;;;;;;5.70;60.20;;;;;;5082776;28;19947;-69
2022/01/05 11:36:41;;;;;;;;;;;5.90;61.10;;;;;;5082699;28;19909;-69
2022/01/05 11:39:07;;;;;;;;;;;6.40;63.00;;;;;;5083049;28;19915;-69
2022/01/05 11:41:33;;;;;;;;;;;6.80;58.00;;;;;;5083105;28;19951;-69
2022/01/05 11:43:59;;;;;;;;;;;6.50;58.50;;;;;;5082848;28;19908;-69
2022/01/05 11:46:28;;;;;;;;;;;6.20;58.60;;;;;;5081017;28;19914;-69
2022/01/05 11:49:08;;;;;;;;;;;6.20;62.20;;;;;;5064841;28;20222;-69
2022/01/05 11:51:45;;;;;;;;;;;6.10;59.70;;;;;;5081914;28;19931;-69
2022/01/05 11:54:13;;;;;;;;;;;6.40;62.60;;;;;;5063998;28;19920;-69
2022/01/05 11:56:47;;;;;;;;;;;6.40;56.70;;;;;;5081530;28;19997;-69
2022/01/05 11:59:20;;;;;;;;;;;6.30;57.90;;;;;;5081701;28;19931;-69
2022/01/05 12:02:00;;;;;;;;;;;5.80;58.20;;;;;;5081618;28;19909;-69
2022/01/05 12:04:26;;;;;;;;;;;5.50;60.10;;;;;;5081364;28;20112;-69
2022/01/05 12:06:53;;;;;;;;;;;5.00;62.10;;;;;;5082744;28;19916;-66
2022/01/05 12:09:20;;;;;;;;;;;4.80;62.30;;;;;;5080698;28;19913;-69
2022/01/05 12:11:46;;;;;;;;;;;4.60;61.80;;;;;;5082458;28;19970;-69
2022/01/05 12:14:20;;;;;;;;;;;4.80;62.70;;;;;;5082050;28;20195;-69
2022/01/05 12:16:55;;;;;;;;;;;5.20;63.20;;;;;;5082062;28;20014;-69
2022/01/05 12:19:22;;;;;;;;;;;5.20;61.80;;;;;;5062479;28;19947;-69
2022/01/05 12:21:52;;;;;;;;;;;5.90;58.70;;;;;;5061565;28;20150;-69
2022/01/05 12:24:18;;;;;;;;;;;5.70;57.40;;;;;;5061062;28;19908;-69
2022/01/05 12:26:43;;;;;;;;;;;5.40;59.30;;;;;;5078029;28;20008;-69
2022/01/05 12:29:09;;;;;;;;;;;5.10;62.80;;;;;;5064334;28;20204;-69
2022/01/05 12:31:50;;;;;;;;;;;4.90;63.40;;;;;;5082561;28;19927;-69
2022/01/05 12:34:54;;;;;;;;;;;5.00;64.50;;;;;;5082147;28;19922;-68
2022/01/05 12:38:04;;;;;;;;;;;4.90;64.00;;;;;;5082353;28;19993;-69
2022/01/05 12:40:39;;;;;;;;;;;4.60;63.50;;;;;;5085315;28;20011;-68
2022/01/05 12:43:07;;;;;;;;;;;4.30;64.90;;;;;;5086228;28;20191;-69
2022/01/05 12:45:56;;;;;;;;;;;4.10;67.10;;;;;;5085104;28;19912;-69
2022/01/05 12:51:22;;;;;;;;;;;3.90;70.70;;;;;;5075100;28;19914;-70
2022/01/05 12:53:53;;;;;;;;;;;3.80;71.10;;;;;;5081415;28;19917;-76
2022/01/05 12:56:23;;;;;;;;;;;3.50;70.20;;;;;;5077951;28;19983;-76
2022/01/05 12:58:51;;;;;;;;;;;3.40;71.10;;;;;;5084385;28;19909;-72
2022/01/05 13:01:20;;;;;;;;;;;3.30;71.40;;;;;;5085251;28;19931;-70
2022/01/05 13:03:46;;;;;;;;;;;3.30;72.60;;;;;;5067788;28;19908;-69
2022/01/05 13:06:23;;;;;;;;;;;3.30;71.60;;;;;;5082438;28;20269;-70
2022/01/05 13:08:53;;;;;;;;;;;3.30;73.10;;;;;;5077455;28;19935;-70
2022/01/05 13:11:40;;;;;;;;;;;3.40;73.90;;;;;;5080050;28;20249;-70
2022/01/05 13:14:14;;;;;;;;;;;3.30;74.50;;;;;;5082418;28;20110;-70
2022/01/05 13:16:44;;;;;;;;;;;3.30;73.80;;;;;;5081168;28;19946;-70
2022/01/05 13:19:20;;;;;;;;;;;3.20;73.90;;;;;;5076060;28;19913;-70
2022/01/05 13:21:46;;;;;;;;;;;3.20;73.40;;;;;;5074129;28;20100;-70
2022/01/05 13:24:12;;;;;;;;;;;3.10;75.70;;;;;;5083584;28;19908;-70
2022/01/05 13:26:58;;;;;;;;;;;3.10;76.40;;;;;;5083622;28;20195;-70
2022/01/05 13:29:25;;;;;;;;;;;3.10;75.40;;;;;;5083724;28;19912;-70
2022/01/05 13:31:58;;;;;;;;;;;3.10;75.60;;;;;;5084043;28;19979;-70
2022/01/05 13:34:35;;;;;;;;;;;3.10;76.40;;;;;;5083758;28;20107;-70
2022/01/05 13:37:01;;;;;;;;;;;3.10;76.70;;;;;;5085073;28;19909;-70
2022/01/05 13:39:46;;;;;;;;;;;3.10;76.30;;;;;;5071733;28;19909;-70
2022/01/05 13:42:17;;;;;;;;;;;3.10;76.10;;;;;;5080539;28;20140;-71
2022/01/05 13:44:44;;;;;;;;;;;3.00;75.40;;;;;;5066732;28;19908;-70
2022/01/05 13:47:11;;;;;;;;;;;3.00;76.00;;;;;;5067039;28;19909;-70
2022/01/05 13:49:37;;;;;;;;;;;3.00;78.00;;;;;;5066414;28;19928;-70
2022/01/05 13:52:12;;;;;;;;;;;3.00;76.50;;;;;;5082532;28;20003;-70
2022/01/05 13:54:42;;;;;;;;;;;2.90;75.10;;;;;;5084231;28;19920;-70
2022/01/05 13:57:26;;;;;;;;;;;2.90;75.60;;;;;;5082757;28;19952;-71
2022/01/05 13:59:57;;;;;;;;;;;3.00;76.50;;;;;;5084679;28;19908;-71
2022/01/05 14:02:23;;;;;;;;;;;2.90;75.60;;;;;;5084972;28;20372;-70
2022/01/05 14:04:50;;;;;;;;;;;2.80;77.10;;;;;;5084385;28;19924;-70
2022/01/05 14:07:17;;;;;;;;;;;2.90;77.00;;;;;;5083554;28;19916;-70
2022/01/05 14:09:43;;;;;;;;;;;2.90;78.00;;;;;;5066802;28;19913;-70
2022/01/05 14:12:28;;;;;;;;;;;2.90;77.80;;;;;;5065581;28;20226;-70
2022/01/05 14:14:55;;;;;;;;;;;2.90;77.30;;;;;;5084023;28;19931;-70
2022/01/05 14:17:21;;;;;;;;;;;2.90;78.00;;;;;;5082537;28;19924;-70
2022/01/05 14:19:47;;;;;;;;;;;2.90;78.20;;;;;;5083262;28;20123;-70
2022/01/05 14:22:18;;;;;;;;;;;2.90;78.40;;;;;;5079630;28;19953;-70
2022/01/05 14:24:45;;;;;;;;;;;2.90;78.70;;;;;;5071265;28;19909;-70
2022/01/05 14:27:18;;;;;;;;;;;2.90;78.60;;;;;;5071683;28;19917;-70
2022/01/05 14:29:44;;;;;;;;;;;2.90;78.60;;;;;;5083014;28;19983;-70
2022/01/05 14:32:12;;;;;;;;;;;2.80;78.60;;;;;;5066211;28;20125;-70
2022/01/05 14:34:39;;;;;;;;;;;2.90;78.80;;;;;;5082604;28;19909;-70
2022/01/05 14:37:12;;;;;;;;;;;2.90;80.20;;;;;;5081716;28;19909;-70
2022/01/05 14:39:47;;;;;;;;;;;2.90;80.30;;;;;;5082891;28;19908;-70
2022/01/05 14:42:19;;;;;;;;;;;2.90;79.20;;;;;;5082879;28;19971;-70